sensor_id;sensor_type;location;lat;lon;timestamp;P1;durP1;ratioP1;P2;durP2;ratioP2
28028;SDS011;15345;59.364;18.016;2023-07-08T00:00:28;2.13;;;1.83;;
28028;SDS011;15345;59.364;18.016;2023-07-08T00:01:47;4.47;;;1.90;;
28028;SDS011;15345;59.364;18.016;2023-07-08T00:03:06;3.63;;;1.88;;
28028;SDS011;15345;59.364;18.016;2023-07-08T00:04:25;2.22;;;2.03;;
28028;SDS011;15345;59.364;18.016;2023-07-08T00:05:46;1.73;;;1.63;;
28028;SDS011;15345;59.364;18.016;2023-07-08T00:07:08;5.35;;;1.90;;
28028;SDS011;15345;59.364;18.016;2023-07-08T00:08:29;3.67;;;2.00;;
28028;SDS011;15345;59.364;18.016;2023-07-08T00:09:48;3.00;;;1.90;;
28028;SDS011;15345;59.364;18.016;2023-07-08T00:11:10;7.13;;;2.00;;
28028;SDS011;15345;59.364;18.016;2023-07-08T00:12:30;2.22;;;1.80;;
28028;SDS011;15345;59.364;18.016;2023-07-08T00:13:49;2.92;;;1.67;;
28028;SDS011;15345;59.364;18.016;2023-07-08T00:15:08;5.50;;;1.67;;
28028;SDS011;15345;59.364;18.016;2023-07-08T00:16:27;4.82;;;2.20;;
28028;SDS011;15345;59.364;18.016;2023-07-08T00:17:46;2.72;;;2.00;;
28028;SDS011;15345;59.364;18.016;2023-07-08T00:19:07;2.45;;;2.13;;
28028;SDS011;15345;59.364;18.016;2023-07-08T00:20:41;3.45;;;2.00;;
28028;SDS011;15345;59.364;18.016;2023-07-08T00:22:00;3.55;;;2.08;;
28028;SDS011;15345;59.364;18.016;2023-07-08T00:23:19;5.68;;;1.80;;
28028;SDS011;15345;59.364;18.016;2023-07-08T00:24:42;1.70;;;1.60;;
28028;SDS011;15345;59.364;18.016;2023-07-08T00:26:01;2.08;;;1.85;;
28028;SDS011;15345;59.364;18.016;2023-07-08T00:27:21;3.00;;;1.80;;
28028;SDS011;15345;59.364;18.016;2023-07-08T00:28:40;4.63;;;1.88;;
28028;SDS011;15345;59.364;18.016;2023-07-08T00:29:59;3.63;;;1.95;;
28028;SDS011;15345;59.364;18.016;2023-07-08T00:31:19;1.80;;;1.70;;
28028;SDS011;15345;59.364;18.016;2023-07-08T00:32:42;2.47;;;1.83;;
28028;SDS011;15345;59.364;18.016;2023-07-08T00:34:01;3.00;;;2.05;;
28028;SDS011;15345;59.364;18.016;2023-07-08T00:36:41;3.35;;;2.20;;
28028;SDS011;15345;59.364;18.016;2023-07-08T00:38:00;2.90;;;2.08;;
28028;SDS011;15345;59.364;18.016;2023-07-08T00:39:31;8.68;;;1.75;;
28028;SDS011;15345;59.364;18.016;2023-07-08T00:40:51;7.18;;;2.20;;
28028;SDS011;15345;59.364;18.016;2023-07-08T00:42:13;3.28;;;2.00;;
28028;SDS011;15345;59.364;18.016;2023-07-08T00:44:52;4.13;;;1.77;;
28028;SDS011;15345;59.364;18.016;2023-07-08T00:47:36;3.40;;;2.40;;
28028;SDS011;15345;59.364;18.016;2023-07-08T00:49:11;2.20;;;2.00;;
28028;SDS011;15345;59.364;18.016;2023-07-08T00:50:33;4.88;;;2.13;;
28028;SDS011;15345;59.364;18.016;2023-07-08T00:51:51;5.60;;;2.10;;
28028;SDS011;15345;59.364;18.016;2023-07-08T00:54:42;6.47;;;2.47;;
28028;SDS011;15345;59.364;18.016;2023-07-08T00:56:19;2.40;;;2.20;;
28028;SDS011;15345;59.364;18.016;2023-07-08T00:57:40;4.28;;;1.90;;
28028;SDS011;15345;59.364;18.016;2023-07-08T00:59:02;2.53;;;1.92;;
28028;SDS011;15345;59.364;18.016;2023-07-08T01:00:22;2.90;;;2.15;;
28028;SDS011;15345;59.364;18.016;2023-07-08T01:01:41;2.53;;;2.20;;
28028;SDS011;15345;59.364;18.016;2023-07-08T01:03:01;3.75;;;2.58;;
28028;SDS011;15345;59.364;18.016;2023-07-08T01:05:39;4.28;;;2.03;;
28028;SDS011;15345;59.364;18.016;2023-07-08T01:06:59;2.75;;;2.15;;
28028;SDS011;15345;59.364;18.016;2023-07-08T01:08:18;2.33;;;2.13;;
28028;SDS011;15345;59.364;18.016;2023-07-08T01:09:40;5.57;;;2.10;;
28028;SDS011;15345;59.364;18.016;2023-07-08T01:11:01;2.30;;;1.98;;
28028;SDS011;15345;59.364;18.016;2023-07-08T01:12:22;2.83;;;2.38;;
28028;SDS011;15345;59.364;18.016;2023-07-08T01:13:43;4.85;;;2.30;;
28028;SDS011;15345;59.364;18.016;2023-07-08T01:15:03;2.30;;;2.10;;
28028;SDS011;15345;59.364;18.016;2023-07-08T01:16:23;5.55;;;2.72;;
28028;SDS011;15345;59.364;18.016;2023-07-08T01:17:43;4.20;;;3.00;;
28028;SDS011;15345;59.364;18.016;2023-07-08T01:19:02;5.05;;;2.63;;
28028;SDS011;15345;59.364;18.016;2023-07-08T01:20:23;3.33;;;2.30;;
28028;SDS011;15345;59.364;18.016;2023-07-08T01:23:13;3.65;;;2.60;;
28028;SDS011;15345;59.364;18.016;2023-07-08T01:24:33;3.40;;;2.60;;
28028;SDS011;15345;59.364;18.016;2023-07-08T01:25:53;2.67;;;2.45;;
28028;SDS011;15345;59.364;18.016;2023-07-08T01:27:13;2.95;;;2.40;;
28028;SDS011;15345;59.364;18.016;2023-07-08T01:28:32;13.70;;;3.47;;
28028;SDS011;15345;59.364;18.016;2023-07-08T01:29:51;9.55;;;2.45;;
28028;SDS011;15345;59.364;18.016;2023-07-08T01:31:10;4.88;;;2.50;;
28028;SDS011;15345;59.364;18.016;2023-07-08T01:32:29;11.57;;;3.03;;
28028;SDS011;15345;59.364;18.016;2023-07-08T01:33:50;4.20;;;2.45;;
28028;SDS011;15345;59.364;18.016;2023-07-08T01:35:10;2.60;;;2.40;;
28028;SDS011;15345;59.364;18.016;2023-07-08T01:36:31;2.70;;;2.50;;
28028;SDS011;15345;59.364;18.016;2023-07-08T01:37:53;4.22;;;2.45;;
28028;SDS011;15345;59.364;18.016;2023-07-08T01:39:14;3.13;;;2.83;;
28028;SDS011;15345;59.364;18.016;2023-07-08T01:40:35;3.83;;;2.90;;
28028;SDS011;15345;59.364;18.016;2023-07-08T01:41:55;2.63;;;2.42;;
28028;SDS011;15345;59.364;18.016;2023-07-08T01:43:14;5.63;;;2.58;;
28028;SDS011;15345;59.364;18.016;2023-07-08T01:44:34;3.75;;;2.70;;
28028;SDS011;15345;59.364;18.016;2023-07-08T01:45:54;3.17;;;2.70;;
28028;SDS011;15345;59.364;18.016;2023-07-08T01:47:14;3.90;;;3.05;;
28028;SDS011;15345;59.364;18.016;2023-07-08T01:48:36;2.83;;;2.45;;
28028;SDS011;15345;59.364;18.016;2023-07-08T01:49:55;7.40;;;3.35;;
28028;SDS011;15345;59.364;18.016;2023-07-08T01:51:14;3.67;;;2.83;;
28028;SDS011;15345;59.364;18.016;2023-07-08T01:52:33;4.35;;;2.92;;
28028;SDS011;15345;59.364;18.016;2023-07-08T01:53:52;6.18;;;2.88;;
28028;SDS011;15345;59.364;18.016;2023-07-08T01:55:11;5.82;;;2.75;;
28028;SDS011;15345;59.364;18.016;2023-07-08T01:56:30;5.35;;;2.65;;
28028;SDS011;15345;59.364;18.016;2023-07-08T01:57:52;2.75;;;2.53;;
28028;SDS011;15345;59.364;18.016;2023-07-08T01:59:11;2.70;;;2.50;;
28028;SDS011;15345;59.364;18.016;2023-07-08T02:00:30;2.22;;;2.08;;
28028;SDS011;15345;59.364;18.016;2023-07-08T02:01:49;4.28;;;3.00;;
28028;SDS011;15345;59.364;18.016;2023-07-08T02:03:13;3.65;;;2.33;;
28028;SDS011;15345;59.364;18.016;2023-07-08T02:04:32;3.50;;;2.78;;
28028;SDS011;15345;59.364;18.016;2023-07-08T02:05:51;5.00;;;2.85;;
28028;SDS011;15345;59.364;18.016;2023-07-08T02:07:09;3.38;;;2.95;;
28028;SDS011;15345;59.364;18.016;2023-07-08T02:08:28;3.03;;;2.75;;
28028;SDS011;15345;59.364;18.016;2023-07-08T02:09:47;9.77;;;2.97;;
28028;SDS011;15345;59.364;18.016;2023-07-08T02:11:06;3.20;;;2.90;;
28028;SDS011;15345;59.364;18.016;2023-07-08T02:12:25;5.00;;;3.45;;
28028;SDS011;15345;59.364;18.016;2023-07-08T02:13:44;3.80;;;2.70;;
28028;SDS011;15345;59.364;18.016;2023-07-08T02:15:04;7.72;;;2.67;;
28028;SDS011;15345;59.364;18.016;2023-07-08T02:16:24;5.65;;;3.00;;
28028;SDS011;15345;59.364;18.016;2023-07-08T02:17:43;4.50;;;3.17;;
28028;SDS011;15345;59.364;18.016;2023-07-08T02:19:02;3.85;;;2.78;;
28028;SDS011;15345;59.364;18.016;2023-07-08T02:20:21;4.00;;;2.92;;
28028;SDS011;15345;59.364;18.016;2023-07-08T02:21:40;6.40;;;3.10;;
28028;SDS011;15345;59.364;18.016;2023-07-08T02:22:59;7.00;;;3.20;;
28028;SDS011;15345;59.364;18.016;2023-07-08T02:24:18;4.30;;;2.70;;
28028;SDS011;15345;59.364;18.016;2023-07-08T02:25:37;3.20;;;2.67;;
28028;SDS011;15345;59.364;18.016;2023-07-08T02:26:56;4.65;;;2.70;;
28028;SDS011;15345;59.364;18.016;2023-07-08T02:28:16;2.97;;;2.65;;
28028;SDS011;15345;59.364;18.016;2023-07-08T02:29:35;5.28;;;2.80;;
28028;SDS011;15345;59.364;18.016;2023-07-08T02:30:56;4.82;;;2.58;;
28028;SDS011;15345;59.364;18.016;2023-07-08T02:32:19;3.60;;;2.80;;
28028;SDS011;15345;59.364;18.016;2023-07-08T02:33:38;2.90;;;2.70;;
28028;SDS011;15345;59.364;18.016;2023-07-08T02:34:57;3.60;;;3.00;;
28028;SDS011;15345;59.364;18.016;2023-07-08T02:36:16;3.42;;;2.85;;
28028;SDS011;15345;59.364;18.016;2023-07-08T02:37:36;6.35;;;3.10;;
28028;SDS011;15345;59.364;18.016;2023-07-08T02:38:55;6.97;;;2.33;;
28028;SDS011;15345;59.364;18.016;2023-07-08T02:40:14;3.20;;;3.00;;
28028;SDS011;15345;59.364;18.016;2023-07-08T02:41:33;4.07;;;3.28;;
28028;SDS011;15345;59.364;18.016;2023-07-08T02:42:52;5.95;;;2.78;;
28028;SDS011;15345;59.364;18.016;2023-07-08T02:44:11;3.40;;;3.10;;
28028;SDS011;15345;59.364;18.016;2023-07-08T02:45:30;5.68;;;2.92;;
28028;SDS011;15345;59.364;18.016;2023-07-08T02:46:49;3.40;;;2.85;;
28028;SDS011;15345;59.364;18.016;2023-07-08T02:48:08;4.60;;;3.75;;
28028;SDS011;15345;59.364;18.016;2023-07-08T02:49:27;5.47;;;3.15;;
28028;SDS011;15345;59.364;18.016;2023-07-08T02:50:46;3.58;;;3.35;;
28028;SDS011;15345;59.364;18.016;2023-07-08T02:52:05;5.50;;;3.35;;
28028;SDS011;15345;59.364;18.016;2023-07-08T02:53:25;3.70;;;3.40;;
28028;SDS011;15345;59.364;18.016;2023-07-08T02:54:44;3.90;;;3.53;;
28028;SDS011;15345;59.364;18.016;2023-07-08T02:56:02;3.40;;;3.05;;
28028;SDS011;15345;59.364;18.016;2023-07-08T02:57:21;3.90;;;3.10;;
28028;SDS011;15345;59.364;18.016;2023-07-08T02:58:40;5.53;;;3.10;;
28028;SDS011;15345;59.364;18.016;2023-07-08T02:59:59;4.10;;;3.55;;
28028;SDS011;15345;59.364;18.016;2023-07-08T03:01:18;11.50;;;3.40;;
28028;SDS011;15345;59.364;18.016;2023-07-08T03:02:37;4.05;;;3.33;;
28028;SDS011;15345;59.364;18.016;2023-07-08T03:03:56;5.30;;;3.90;;
28028;SDS011;15345;59.364;18.016;2023-07-08T03:05:19;4.32;;;3.20;;
28028;SDS011;15345;59.364;18.016;2023-07-08T03:06:38;3.80;;;3.50;;
28028;SDS011;15345;59.364;18.016;2023-07-08T03:07:56;5.60;;;3.08;;
28028;SDS011;15345;59.364;18.016;2023-07-08T03:09:15;4.28;;;3.20;;
28028;SDS011;15345;59.364;18.016;2023-07-08T03:10:36;3.53;;;3.22;;
28028;SDS011;15345;59.364;18.016;2023-07-08T03:11:55;4.82;;;3.30;;
28028;SDS011;15345;59.364;18.016;2023-07-08T03:13:14;2.80;;;2.60;;
28028;SDS011;15345;59.364;18.016;2023-07-08T03:14:33;5.50;;;3.17;;
28028;SDS011;15345;59.364;18.016;2023-07-08T03:15:52;3.70;;;3.40;;
28028;SDS011;15345;59.364;18.016;2023-07-08T03:17:11;3.67;;;3.38;;
28028;SDS011;15345;59.364;18.016;2023-07-08T03:18:30;3.58;;;3.28;;
28028;SDS011;15345;59.364;18.016;2023-07-08T03:19:49;4.53;;;3.20;;
28028;SDS011;15345;59.364;18.016;2023-07-08T03:21:08;10.93;;;3.08;;
28028;SDS011;15345;59.364;18.016;2023-07-08T03:22:27;3.80;;;2.65;;
28028;SDS011;15345;59.364;18.016;2023-07-08T03:23:47;7.18;;;3.75;;
28028;SDS011;15345;59.364;18.016;2023-07-08T03:25:06;3.25;;;3.00;;
28028;SDS011;15345;59.364;18.016;2023-07-08T03:26:26;2.92;;;2.72;;
28028;SDS011;15345;59.364;18.016;2023-07-08T03:27:45;3.20;;;3.00;;
28028;SDS011;15345;59.364;18.016;2023-07-08T03:29:04;3.47;;;3.17;;
28028;SDS011;15345;59.364;18.016;2023-07-08T03:30:23;3.40;;;3.10;;
28028;SDS011;15345;59.364;18.016;2023-07-08T03:31:42;4.07;;;3.10;;
28028;SDS011;15345;59.364;18.016;2023-07-08T03:33:01;3.80;;;3.35;;
28028;SDS011;15345;59.364;18.016;2023-07-08T03:34:20;3.85;;;3.05;;
28028;SDS011;15345;59.364;18.016;2023-07-08T03:35:39;3.65;;;3.35;;
28028;SDS011;15345;59.364;18.016;2023-07-08T03:36:59;7.10;;;4.53;;
28028;SDS011;15345;59.364;18.016;2023-07-08T03:38:18;7.75;;;3.30;;
28028;SDS011;15345;59.364;18.016;2023-07-08T03:39:37;4.90;;;3.08;;
28028;SDS011;15345;59.364;18.016;2023-07-08T03:40:56;3.90;;;2.90;;
28028;SDS011;15345;59.364;18.016;2023-07-08T03:42:15;3.15;;;2.85;;
28028;SDS011;15345;59.364;18.016;2023-07-08T03:43:34;5.20;;;3.17;;
28028;SDS011;15345;59.364;18.016;2023-07-08T03:44:53;6.03;;;3.33;;
28028;SDS011;15345;59.364;18.016;2023-07-08T03:46:13;3.53;;;2.90;;
28028;SDS011;15345;59.364;18.016;2023-07-08T03:47:32;7.53;;;3.00;;
28028;SDS011;15345;59.364;18.016;2023-07-08T03:48:51;5.50;;;3.35;;
28028;SDS011;15345;59.364;18.016;2023-07-08T03:50:18;3.58;;;2.97;;
28028;SDS011;15345;59.364;18.016;2023-07-08T03:51:39;3.83;;;3.13;;
28028;SDS011;15345;59.364;18.016;2023-07-08T03:52:58;6.05;;;3.80;;
28028;SDS011;15345;59.364;18.016;2023-07-08T03:54:17;3.63;;;3.08;;
28028;SDS011;15345;59.364;18.016;2023-07-08T03:55:37;6.15;;;2.78;;
28028;SDS011;15345;59.364;18.016;2023-07-08T03:56:56;6.75;;;2.78;;
28028;SDS011;15345;59.364;18.016;2023-07-08T03:58:15;4.70;;;3.05;;
28028;SDS011;15345;59.364;18.016;2023-07-08T03:59:33;3.25;;;2.92;;
28028;SDS011;15345;59.364;18.016;2023-07-08T04:00:52;3.72;;;2.90;;
28028;SDS011;15345;59.364;18.016;2023-07-08T04:02:11;3.08;;;2.80;;
28028;SDS011;15345;59.364;18.016;2023-07-08T04:03:31;3.22;;;2.88;;
28028;SDS011;15345;59.364;18.016;2023-07-08T04:04:49;3.38;;;3.15;;
28028;SDS011;15345;59.364;18.016;2023-07-08T04:06:09;3.65;;;3.35;;
28028;SDS011;15345;59.364;18.016;2023-07-08T04:07:28;2.90;;;2.70;;
28028;SDS011;15345;59.364;18.016;2023-07-08T04:08:48;6.90;;;3.50;;
28028;SDS011;15345;59.364;18.016;2023-07-08T04:10:07;2.85;;;2.63;;
28028;SDS011;15345;59.364;18.016;2023-07-08T04:11:26;5.15;;;3.40;;
28028;SDS011;15345;59.364;18.016;2023-07-08T04:12:45;3.33;;;3.10;;
28028;SDS011;15345;59.364;18.016;2023-07-08T04:14:04;2.92;;;2.70;;
28028;SDS011;15345;59.364;18.016;2023-07-08T04:15:23;3.63;;;3.08;;
28028;SDS011;15345;59.364;18.016;2023-07-08T04:16:51;3.90;;;2.78;;
28028;SDS011;15345;59.364;18.016;2023-07-08T04:18:11;3.30;;;3.10;;
28028;SDS011;15345;59.364;18.016;2023-07-08T04:19:30;5.38;;;3.08;;
28028;SDS011;15345;59.364;18.016;2023-07-08T04:20:49;3.05;;;2.60;;
28028;SDS011;15345;59.364;18.016;2023-07-08T04:22:11;4.38;;;3.20;;
28028;SDS011;15345;59.364;18.016;2023-07-08T04:23:30;3.53;;;3.03;;
28028;SDS011;15345;59.364;18.016;2023-07-08T04:24:48;4.50;;;2.85;;
28028;SDS011;15345;59.364;18.016;2023-07-08T04:26:08;3.17;;;2.92;;
28028;SDS011;15345;59.364;18.016;2023-07-08T04:27:27;3.20;;;2.80;;
28028;SDS011;15345;59.364;18.016;2023-07-08T04:28:46;3.17;;;2.88;;
28028;SDS011;15345;59.364;18.016;2023-07-08T04:30:06;3.00;;;2.80;;
28028;SDS011;15345;59.364;18.016;2023-07-08T04:31:25;5.95;;;2.72;;
28028;SDS011;15345;59.364;18.016;2023-07-08T04:32:44;4.22;;;2.67;;
28028;SDS011;15345;59.364;18.016;2023-07-08T04:34:03;3.35;;;2.60;;
28028;SDS011;15345;59.364;18.016;2023-07-08T04:35:22;2.67;;;2.45;;
28028;SDS011;15345;59.364;18.016;2023-07-08T04:36:41;3.95;;;3.17;;
28028;SDS011;15345;59.364;18.016;2023-07-08T04:38:00;5.25;;;3.30;;
28028;SDS011;15345;59.364;18.016;2023-07-08T04:39:19;3.15;;;2.75;;
28028;SDS011;15345;59.364;18.016;2023-07-08T04:40:38;4.03;;;2.45;;
28028;SDS011;15345;59.364;18.016;2023-07-08T04:41:58;3.20;;;2.83;;
28028;SDS011;15345;59.364;18.016;2023-07-08T04:43:17;3.20;;;2.90;;
28028;SDS011;15345;59.364;18.016;2023-07-08T04:44:37;2.88;;;2.70;;
28028;SDS011;15345;59.364;18.016;2023-07-08T04:45:56;5.50;;;2.95;;
28028;SDS011;15345;59.364;18.016;2023-07-08T04:47:15;2.92;;;2.72;;
28028;SDS011;15345;59.364;18.016;2023-07-08T04:48:34;3.40;;;3.00;;
28028;SDS011;15345;59.364;18.016;2023-07-08T04:49:53;3.67;;;3.28;;
28028;SDS011;15345;59.364;18.016;2023-07-08T04:51:12;3.50;;;3.22;;
28028;SDS011;15345;59.364;18.016;2023-07-08T04:52:31;3.20;;;2.90;;
28028;SDS011;15345;59.364;18.016;2023-07-08T04:53:50;3.92;;;3.00;;
28028;SDS011;15345;59.364;18.016;2023-07-08T04:55:10;4.45;;;2.97;;
28028;SDS011;15345;59.364;18.016;2023-07-08T04:57:54;6.97;;;3.42;;
28028;SDS011;15345;59.364;18.016;2023-07-08T04:59:14;4.57;;;2.67;;
28028;SDS011;15345;59.364;18.016;2023-07-08T05:00:34;3.85;;;3.53;;
28028;SDS011;15345;59.364;18.016;2023-07-08T05:01:53;4.25;;;2.85;;
28028;SDS011;15345;59.364;18.016;2023-07-08T05:03:12;4.90;;;3.33;;
28028;SDS011;15345;59.364;18.016;2023-07-08T05:04:31;4.63;;;3.13;;
28028;SDS011;15345;59.364;18.016;2023-07-08T05:05:50;3.25;;;2.95;;
28028;SDS011;15345;59.364;18.016;2023-07-08T05:07:09;3.42;;;3.10;;
28028;SDS011;15345;59.364;18.016;2023-07-08T05:08:28;3.22;;;3.00;;
28028;SDS011;15345;59.364;18.016;2023-07-08T05:09:46;5.00;;;3.10;;
28028;SDS011;15345;59.364;18.016;2023-07-08T05:11:05;3.60;;;3.25;;
28028;SDS011;15345;59.364;18.016;2023-07-08T05:12:25;3.88;;;3.58;;
28028;SDS011;15345;59.364;18.016;2023-07-08T05:13:44;4.85;;;3.20;;
28028;SDS011;15345;59.364;18.016;2023-07-08T05:15:03;4.45;;;3.47;;
28028;SDS011;15345;59.364;18.016;2023-07-08T05:16:22;5.00;;;3.00;;
28028;SDS011;15345;59.364;18.016;2023-07-08T05:17:41;3.33;;;3.03;;
28028;SDS011;15345;59.364;18.016;2023-07-08T05:19:01;5.57;;;3.33;;
28028;SDS011;15345;59.364;18.016;2023-07-08T05:20:20;5.97;;;2.70;;
28028;SDS011;15345;59.364;18.016;2023-07-08T05:21:39;5.15;;;3.35;;
28028;SDS011;15345;59.364;18.016;2023-07-08T05:22:58;4.70;;;3.03;;
28028;SDS011;15345;59.364;18.016;2023-07-08T05:24:17;10.18;;;3.63;;
28028;SDS011;15345;59.364;18.016;2023-07-08T05:25:36;3.15;;;2.95;;
28028;SDS011;15345;59.364;18.016;2023-07-08T05:26:55;5.60;;;2.92;;
28028;SDS011;15345;59.364;18.016;2023-07-08T05:28:14;3.30;;;3.10;;
28028;SDS011;15345;59.364;18.016;2023-07-08T05:29:34;4.97;;;3.40;;
28028;SDS011;15345;59.364;18.016;2023-07-08T05:30:53;4.10;;;2.97;;
28028;SDS011;15345;59.364;18.016;2023-07-08T05:32:15;3.40;;;3.20;;
28028;SDS011;15345;59.364;18.016;2023-07-08T05:33:34;5.88;;;3.75;;
28028;SDS011;15345;59.364;18.016;2023-07-08T05:34:53;5.75;;;3.20;;
28028;SDS011;15345;59.364;18.016;2023-07-08T05:36:12;3.70;;;3.40;;
28028;SDS011;15345;59.364;18.016;2023-07-08T05:37:31;5.97;;;3.40;;
28028;SDS011;15345;59.364;18.016;2023-07-08T05:38:50;2.90;;;2.70;;
28028;SDS011;15345;59.364;18.016;2023-07-08T05:40:09;7.28;;;3.45;;
28028;SDS011;15345;59.364;18.016;2023-07-08T05:41:28;3.33;;;2.88;;
28028;SDS011;15345;59.364;18.016;2023-07-08T05:42:47;4.88;;;3.25;;
28028;SDS011;15345;59.364;18.016;2023-07-08T05:44:06;3.72;;;3.10;;
28028;SDS011;15345;59.364;18.016;2023-07-08T05:45:25;5.60;;;3.05;;
28028;SDS011;15345;59.364;18.016;2023-07-08T05:46:44;3.72;;;3.53;;
28028;SDS011;15345;59.364;18.016;2023-07-08T05:48:03;3.38;;;3.10;;
28028;SDS011;15345;59.364;18.016;2023-07-08T05:49:22;3.83;;;3.42;;
28028;SDS011;15345;59.364;18.016;2023-07-08T05:50:41;4.65;;;3.60;;
28028;SDS011;15345;59.364;18.016;2023-07-08T05:52:00;4.50;;;3.42;;
28028;SDS011;15345;59.364;18.016;2023-07-08T05:53:24;3.92;;;3.00;;
28028;SDS011;15345;59.364;18.016;2023-07-08T05:54:43;4.45;;;3.55;;
28028;SDS011;15345;59.364;18.016;2023-07-08T05:56:02;3.90;;;3.60;;
28028;SDS011;15345;59.364;18.016;2023-07-08T05:57:22;4.22;;;3.83;;
28028;SDS011;15345;59.364;18.016;2023-07-08T05:58:42;6.72;;;4.57;;
28028;SDS011;15345;59.364;18.016;2023-07-08T06:00:01;3.97;;;3.55;;
28028;SDS011;15345;59.364;18.016;2023-07-08T06:01:20;3.95;;;3.67;;
28028;SDS011;15345;59.364;18.016;2023-07-08T06:02:39;3.78;;;3.47;;
28028;SDS011;15345;59.364;18.016;2023-07-08T06:03:58;5.35;;;3.42;;
28028;SDS011;15345;59.364;18.016;2023-07-08T06:05:18;4.28;;;3.05;;
28028;SDS011;15345;59.364;18.016;2023-07-08T06:06:37;4.80;;;3.78;;
28028;SDS011;15345;59.364;18.016;2023-07-08T06:07:56;4.18;;;3.88;;
28028;SDS011;15345;59.364;18.016;2023-07-08T06:09:15;3.78;;;3.45;;
28028;SDS011;15345;59.364;18.016;2023-07-08T06:10:34;3.85;;;3.55;;
28028;SDS011;15345;59.364;18.016;2023-07-08T06:11:53;4.15;;;3.75;;
28028;SDS011;15345;59.364;18.016;2023-07-08T06:13:12;4.20;;;3.28;;
28028;SDS011;15345;59.364;18.016;2023-07-08T06:14:31;3.72;;;3.45;;
28028;SDS011;15345;59.364;18.016;2023-07-08T06:15:50;3.80;;;3.60;;
28028;SDS011;15345;59.364;18.016;2023-07-08T06:17:09;3.83;;;3.63;;
28028;SDS011;15345;59.364;18.016;2023-07-08T06:18:29;4.88;;;3.28;;
28028;SDS011;15345;59.364;18.016;2023-07-08T06:19:48;3.63;;;3.30;;
28028;SDS011;15345;59.364;18.016;2023-07-08T06:21:07;3.55;;;3.35;;
28028;SDS011;15345;59.364;18.016;2023-07-08T06:22:26;4.18;;;3.78;;
28028;SDS011;15345;59.364;18.016;2023-07-08T06:23:45;4.88;;;3.63;;
28028;SDS011;15345;59.364;18.016;2023-07-08T06:25:05;3.53;;;3.15;;
28028;SDS011;15345;59.364;18.016;2023-07-08T06:26:23;3.88;;;3.55;;
28028;SDS011;15345;59.364;18.016;2023-07-08T06:27:42;4.15;;;3.45;;
28028;SDS011;15345;59.364;18.016;2023-07-08T06:29:01;4.57;;;3.50;;
28028;SDS011;15345;59.364;18.016;2023-07-08T06:30:20;3.75;;;3.45;;
28028;SDS011;15345;59.364;18.016;2023-07-08T06:31:39;4.03;;;3.72;;
28028;SDS011;15345;59.364;18.016;2023-07-08T06:32:59;6.63;;;3.63;;
28028;SDS011;15345;59.364;18.016;2023-07-08T06:34:18;4.50;;;3.33;;
28028;SDS011;15345;59.364;18.016;2023-07-08T06:35:37;4.30;;;4.00;;
28028;SDS011;15345;59.364;18.016;2023-07-08T06:36:56;4.55;;;3.70;;
28028;SDS011;15345;59.364;18.016;2023-07-08T06:38:15;4.05;;;3.75;;
28028;SDS011;15345;59.364;18.016;2023-07-08T06:39:34;3.58;;;3.38;;
28028;SDS011;15345;59.364;18.016;2023-07-08T06:40:53;3.45;;;3.17;;
28028;SDS011;15345;59.364;18.016;2023-07-08T06:42:12;4.13;;;3.63;;
28028;SDS011;15345;59.364;18.016;2023-07-08T06:43:31;3.60;;;3.30;;
28028;SDS011;15345;59.364;18.016;2023-07-08T06:44:50;3.88;;;3.58;;
28028;SDS011;15345;59.364;18.016;2023-07-08T06:46:09;6.65;;;3.33;;
28028;SDS011;15345;59.364;18.016;2023-07-08T06:47:28;4.25;;;3.30;;
28028;SDS011;15345;59.364;18.016;2023-07-08T06:48:47;4.50;;;3.55;;
28028;SDS011;15345;59.364;18.016;2023-07-08T06:50:07;3.97;;;3.67;;
28028;SDS011;15345;59.364;18.016;2023-07-08T06:51:26;3.97;;;3.58;;
28028;SDS011;15345;59.364;18.016;2023-07-08T06:52:45;4.53;;;3.50;;
28028;SDS011;15345;59.364;18.016;2023-07-08T06:54:04;4.72;;;3.63;;
28028;SDS011;15345;59.364;18.016;2023-07-08T06:55:29;4.25;;;3.40;;
28028;SDS011;15345;59.364;18.016;2023-07-08T06:56:48;3.75;;;3.45;;
28028;SDS011;15345;59.364;18.016;2023-07-08T06:58:07;3.80;;;3.40;;
28028;SDS011;15345;59.364;18.016;2023-07-08T06:59:26;9.13;;;3.47;;
28028;SDS011;15345;59.364;18.016;2023-07-08T07:00:47;4.38;;;3.47;;
28028;SDS011;15345;59.364;18.016;2023-07-08T07:02:07;3.40;;;3.10;;
28028;SDS011;15345;59.364;18.016;2023-07-08T07:03:26;4.72;;;2.95;;
28028;SDS011;15345;59.364;18.016;2023-07-08T07:04:45;3.42;;;3.17;;
28028;SDS011;15345;59.364;18.016;2023-07-08T07:06:04;3.10;;;2.90;;
28028;SDS011;15345;59.364;18.016;2023-07-08T07:07:24;7.63;;;3.53;;
28028;SDS011;15345;59.364;18.016;2023-07-08T07:08:43;4.10;;;3.38;;
28028;SDS011;15345;59.364;18.016;2023-07-08T07:10:02;3.75;;;3.22;;
28028;SDS011;15345;59.364;18.016;2023-07-08T07:11:21;4.03;;;3.63;;
28028;SDS011;15345;59.364;18.016;2023-07-08T07:12:40;3.15;;;2.95;;
28028;SDS011;15345;59.364;18.016;2023-07-08T07:13:59;4.00;;;3.42;;
28028;SDS011;15345;59.364;18.016;2023-07-08T07:15:18;4.47;;;3.28;;
28028;SDS011;15345;59.364;18.016;2023-07-08T07:16:37;5.85;;;3.17;;
28028;SDS011;15345;59.364;18.016;2023-07-08T07:17:56;4.25;;;3.63;;
28028;SDS011;15345;59.364;18.016;2023-07-08T07:19:15;3.75;;;3.25;;
28028;SDS011;15345;59.364;18.016;2023-07-08T07:20:35;3.72;;;3.42;;
28028;SDS011;15345;59.364;18.016;2023-07-08T07:21:54;4.07;;;3.38;;
28028;SDS011;15345;59.364;18.016;2023-07-08T07:23:14;3.53;;;3.20;;
28028;SDS011;15345;59.364;18.016;2023-07-08T07:24:33;4.07;;;3.47;;
28028;SDS011;15345;59.364;18.016;2023-07-08T07:25:52;3.45;;;3.15;;
28028;SDS011;15345;59.364;18.016;2023-07-08T07:27:11;4.25;;;3.10;;
28028;SDS011;15345;59.364;18.016;2023-07-08T07:28:31;3.35;;;3.15;;
28028;SDS011;15345;59.364;18.016;2023-07-08T07:29:50;4.30;;;3.15;;
28028;SDS011;15345;59.364;18.016;2023-07-08T07:31:09;3.95;;;3.10;;
28028;SDS011;15345;59.364;18.016;2023-07-08T07:32:29;4.63;;;3.33;;
28028;SDS011;15345;59.364;18.016;2023-07-08T07:33:50;2.95;;;2.75;;
28028;SDS011;15345;59.364;18.016;2023-07-08T07:35:10;3.40;;;3.17;;
28028;SDS011;15345;59.364;18.016;2023-07-08T07:36:33;3.50;;;3.22;;
28028;SDS011;15345;59.364;18.016;2023-07-08T07:37:52;4.15;;;3.25;;
28028;SDS011;15345;59.364;18.016;2023-07-08T07:39:11;3.72;;;3.40;;
28028;SDS011;15345;59.364;18.016;2023-07-08T07:40:30;4.18;;;3.63;;
28028;SDS011;15345;59.364;18.016;2023-07-08T07:41:49;3.40;;;3.20;;
28028;SDS011;15345;59.364;18.016;2023-07-08T07:43:08;4.35;;;3.50;;
28028;SDS011;15345;59.364;18.016;2023-07-08T07:44:27;3.38;;;3.17;;
28028;SDS011;15345;59.364;18.016;2023-07-08T07:45:49;3.65;;;3.38;;
28028;SDS011;15345;59.364;18.016;2023-07-08T07:47:09;3.75;;;3.45;;
28028;SDS011;15345;59.364;18.016;2023-07-08T07:48:28;4.10;;;3.50;;
28028;SDS011;15345;59.364;18.016;2023-07-08T07:49:47;4.60;;;3.47;;
28028;SDS011;15345;59.364;18.016;2023-07-08T07:51:06;2.70;;;2.50;;
28028;SDS011;15345;59.364;18.016;2023-07-08T07:52:28;3.08;;;2.88;;
28028;SDS011;15345;59.364;18.016;2023-07-08T07:53:48;3.63;;;2.95;;
28028;SDS011;15345;59.364;18.016;2023-07-08T07:55:07;4.43;;;3.08;;
28028;SDS011;15345;59.364;18.016;2023-07-08T07:56:26;3.70;;;3.42;;
28028;SDS011;15345;59.364;18.016;2023-07-08T07:57:44;3.20;;;3.00;;
28028;SDS011;15345;59.364;18.016;2023-07-08T07:59:06;4.22;;;3.20;;
28028;SDS011;15345;59.364;18.016;2023-07-08T08:00:25;3.70;;;3.40;;
28028;SDS011;15345;59.364;18.016;2023-07-08T08:01:44;3.65;;;3.35;;